createdAt,value
2022-09-14T00:01:30.434Z,1.60
2022-09-14T00:04:00.475Z,1.40
2022-09-14T00:06:28.266Z,1.33
2022-09-14T00:08:56.576Z,1.63
2022-09-14T00:11:26.045Z,1.75
2022-09-14T00:13:54.110Z,1.42
2022-09-14T00:16:22.782Z,1.30
2022-09-14T00:19:01.605Z,1.55
2022-09-14T00:21:29.294Z,1.40
2022-09-14T00:23:56.594Z,1.38
2022-09-14T00:26:24.297Z,1.88
2022-09-14T00:28:53.331Z,1.23
2022-09-14T00:31:21.229Z,1.60
2022-09-14T00:33:49.740Z,1.52
2022-09-14T00:36:24.593Z,1.70
2022-09-14T00:38:52.739Z,2.25
2022-09-14T00:41:21.319Z,1.40
2022-09-14T00:43:52.647Z,1.60
2022-09-14T00:46:20.298Z,1.60
2022-09-14T00:48:47.699Z,1.50
2022-09-14T00:51:15.769Z,1.52
2022-09-14T00:53:43.342Z,1.70
2022-09-14T00:56:10.876Z,1.55
2022-09-14T00:58:38.905Z,1.55
2022-09-14T01:01:06.505Z,1.65
2022-09-14T01:03:33.929Z,1.40
2022-09-14T01:06:07.499Z,1.40
2022-09-14T01:08:45.731Z,1.73
2022-09-14T01:11:19.401Z,1.50
2022-09-14T01:14:03.747Z,1.50
2022-09-14T01:16:50.309Z,2.00
2022-09-14T01:19:38.809Z,1.83
2022-09-14T01:22:19.747Z,1.58
2022-09-14T01:24:54.465Z,1.30
2022-09-14T01:27:34.314Z,1.63
2022-09-14T01:30:04.445Z,1.38
2022-09-14T01:32:38.383Z,1.63
2022-09-14T01:35:16.082Z,1.27
2022-09-14T01:37:49.829Z,1.50
2022-09-14T01:40:24.478Z,1.70
2022-09-14T01:42:55.885Z,1.27
2022-09-14T01:45:24.437Z,1.52
2022-09-14T01:47:55.859Z,1.17
2022-09-14T01:50:34.110Z,1.20
2022-09-14T01:53:13.445Z,1.13
2022-09-14T01:55:43.989Z,1.23
2022-09-14T01:58:14.424Z,1.10
2022-09-14T02:00:44.374Z,1.25
2022-09-14T02:03:14.920Z,1.30
2022-09-14T02:06:12.257Z,1.40
2022-09-14T02:08:39.571Z,1.27
2022-09-14T02:11:07.144Z,1.33
2022-09-14T02:13:35.245Z,1.50
2022-09-14T02:16:02.668Z,1.30
2022-09-14T02:18:30.147Z,1.20
2022-09-14T02:21:03.211Z,1.65
2022-09-14T02:23:31.070Z,1.38
2022-09-14T02:25:58.944Z,1.48
2022-09-14T02:28:26.304Z,2.17
2022-09-14T02:31:04.743Z,4.68
2022-09-14T02:33:41.276Z,5.47
2022-09-14T02:36:15.616Z,5.18
2022-09-14T02:38:45.985Z,3.80
2022-09-14T02:41:22.134Z,3.05
2022-09-14T02:43:56.703Z,2.42
2022-09-14T02:48:51.209Z,2.50
2022-09-14T02:51:21.414Z,2.15
2022-09-14T02:53:52.201Z,1.90
2022-09-14T02:56:20.294Z,2.08
2022-09-14T02:58:47.642Z,2.25
2022-09-14T03:01:17.060Z,1.90
2022-09-14T03:03:44.575Z,2.10
2022-09-14T03:06:12.133Z,1.90
2022-09-14T03:08:39.903Z,1.83
2022-09-14T03:11:07.285Z,1.48
2022-09-14T03:13:35.780Z,1.50
2022-09-14T03:16:10.545Z,1.77
2022-09-14T03:18:38.114Z,1.40
2022-09-14T03:21:05.525Z,1.52
2022-09-14T03:23:36.687Z,1.48
2022-09-14T03:26:07.124Z,1.13
2022-09-14T03:28:34.564Z,1.27
2022-09-14T03:31:02.717Z,1.50
2022-09-14T03:33:30.220Z,1.52
2022-09-14T03:35:57.814Z,1.33
2022-09-14T03:38:27.939Z,1.70
2022-09-14T03:40:55.493Z,1.50
2022-09-14T03:43:22.976Z,1.45
2022-09-14T03:45:53.211Z,1.73
2022-09-14T03:48:20.625Z,1.50
2022-09-14T03:50:48.153Z,1.98
2022-09-14T03:53:15.460Z,1.73
2022-09-14T03:55:42.832Z,1.40
2022-09-14T03:58:10.330Z,1.60
2022-09-14T04:00:37.586Z,1.50
2022-09-14T04:03:05.043Z,1.27
2022-09-14T04:05:32.466Z,1.52
2022-09-14T04:07:59.778Z,1.77
2022-09-14T04:10:27.365Z,1.90
2022-09-14T04:12:54.730Z,2.10
2022-09-14T04:15:21.971Z,1.95
2022-09-14T04:17:50.338Z,1.88
2022-09-14T04:20:21.424Z,1.90
2022-09-14T04:22:48.665Z,2.03
2022-09-14T04:25:16.084Z,1.95
2022-09-14T04:27:46.092Z,2.20
2022-09-14T04:30:18.829Z,1.75
2022-09-14T04:32:46.874Z,1.83
2022-09-14T04:35:14.115Z,2.22
2022-09-14T04:37:41.561Z,1.83
2022-09-14T04:40:09.246Z,2.00
2022-09-14T04:42:36.515Z,2.38
2022-09-14T04:45:05.032Z,2.53
2022-09-14T04:47:33.609Z,1.35
2022-09-14T04:50:01.184Z,1.80
2022-09-14T04:52:28.591Z,1.60
2022-09-14T04:54:55.854Z,2.47
2022-09-14T04:57:23.255Z,2.03
2022-09-14T04:59:50.672Z,1.75
2022-09-14T05:02:18.058Z,1.70
2022-09-14T05:04:45.423Z,1.42
2022-09-14T05:07:13.257Z,1.63
2022-09-14T05:09:40.560Z,1.75
2022-09-14T05:12:08.322Z,1.60
2022-09-14T05:14:35.772Z,1.85
2022-09-14T05:17:04.546Z,1.63
2022-09-14T05:19:31.881Z,1.90
2022-09-14T05:21:59.210Z,1.92
2022-09-14T05:24:26.634Z,1.80
2022-09-14T05:26:57.103Z,1.60
2022-09-14T05:29:29.632Z,1.23
2022-09-14T05:31:56.891Z,1.00
2022-09-14T05:34:24.296Z,0.88
2022-09-14T05:36:51.657Z,1.10
2022-09-14T05:39:23.168Z,0.90
2022-09-14T05:41:50.791Z,1.33
2022-09-14T05:44:18.734Z,1.13
2022-09-14T05:46:46.089Z,1.00
2022-09-14T05:49:13.268Z,0.93
2022-09-14T05:51:40.876Z,1.13
2022-09-14T05:54:11.588Z,1.25
2022-09-14T05:56:38.913Z,0.95
2022-09-14T05:59:06.908Z,1.10
2022-09-14T06:01:34.251Z,1.30
2022-09-14T06:04:02.459Z,1.30
2022-09-14T06:06:30.919Z,1.27
2022-09-14T06:08:58.204Z,1.38
2022-09-14T06:11:27.049Z,1.48
2022-09-14T06:13:55.059Z,1.60
2022-09-14T06:16:23.143Z,1.30
2022-09-14T06:18:50.873Z,1.42
2022-09-14T06:21:20.007Z,1.50
2022-09-14T06:23:48.075Z,1.27
2022-09-14T06:26:17.410Z,1.08
2022-09-14T06:28:44.790Z,1.20
2022-09-14T06:31:13.983Z,1.25
2022-09-14T06:33:48.239Z,1.40
2022-09-14T06:36:17.927Z,1.13
2022-09-14T06:38:45.375Z,1.65
2022-09-14T06:41:14.244Z,1.30
2022-09-14T06:43:42.473Z,1.15
2022-09-14T06:46:21.974Z,1.10
2022-09-14T06:48:54.888Z,1.27
2022-09-14T06:51:35.926Z,1.30
2022-09-14T06:54:03.776Z,1.02
2022-09-14T06:56:38.506Z,1.52
2022-09-14T06:59:07.611Z,1.10
2022-09-14T07:01:35.051Z,1.35
2022-09-14T07:04:02.552Z,1.10
2022-09-14T07:06:31.486Z,1.08
2022-09-14T07:08:59.352Z,1.23
2022-09-14T07:11:27.762Z,1.10
2022-09-14T07:13:58.917Z,0.98
2022-09-14T07:16:26.793Z,1.13
2022-09-14T07:18:54.759Z,1.15
2022-09-14T07:21:22.494Z,1.05
2022-09-14T07:23:50.351Z,1.13
2022-09-14T07:26:19.044Z,1.00
2022-09-14T07:28:47.330Z,1.20
2022-09-14T07:31:25.807Z,1.50
2022-09-14T07:33:55.013Z,1.30
2022-09-14T07:36:23.006Z,1.27
2022-09-14T07:38:57.810Z,1.33
2022-09-14T07:41:26.803Z,1.02
2022-09-14T07:43:55.133Z,1.20
2022-09-14T07:46:22.741Z,1.10
2022-09-14T07:48:54.690Z,1.25
2022-09-14T07:51:22.258Z,1.30
2022-09-14T07:53:49.495Z,1.10
2022-09-14T07:56:17.261Z,0.82
2022-09-14T07:58:45.146Z,2.25
2022-09-14T08:01:14.107Z,0.98
2022-09-14T08:03:45.173Z,1.30
2022-09-14T08:06:14.104Z,1.10
2022-09-14T08:08:42.418Z,1.15
2022-09-14T08:11:11.419Z,1.10
2022-09-14T08:13:39.430Z,0.95
2022-09-14T08:16:06.955Z,0.95
2022-09-14T08:18:35.717Z,1.48
2022-09-14T08:21:23.287Z,0.95
2022-09-14T08:23:50.637Z,1.00
2022-09-14T08:26:19.315Z,1.48
2022-09-14T08:28:47.543Z,1.27
2022-09-14T08:31:25.114Z,1.48
2022-09-14T08:33:53.690Z,1.38
2022-09-14T08:36:22.604Z,1.25
2022-09-14T08:38:50.282Z,1.10
2022-09-14T08:41:27.247Z,1.40
2022-09-14T08:43:54.595Z,1.25
2022-09-14T08:46:31.084Z,1.30
2022-09-14T08:48:59.844Z,1.15
2022-09-14T08:51:27.150Z,1.33
2022-09-14T08:53:56.437Z,1.50
2022-09-14T08:56:25.823Z,1.30
2022-09-14T08:59:05.537Z,1.50
2022-09-14T09:01:36.469Z,1.48
2022-09-14T09:04:22.596Z,1.48
2022-09-14T09:07:09.108Z,1.50
2022-09-14T09:09:45.384Z,1.33
2022-09-14T09:12:18.707Z,1.27
2022-09-14T09:15:00.042Z,1.40
2022-09-14T09:20:19.452Z,1.13
2022-09-14T09:22:49.543Z,1.55
2022-09-14T09:25:24.631Z,1.20
2022-09-14T09:27:55.261Z,1.45
2022-09-14T09:30:22.528Z,1.75
2022-09-14T09:32:49.981Z,1.63
2022-09-14T09:35:36.009Z,1.30
2022-09-14T09:38:24.745Z,1.60
2022-09-14T09:40:57.027Z,1.90
2022-09-14T09:43:45.383Z,1.88
2022-09-14T09:46:12.790Z,1.90
2022-09-14T09:48:41.821Z,1.60
2022-09-14T09:51:13.577Z,1.52
2022-09-14T09:53:49.271Z,1.75
2022-09-14T09:56:27.556Z,1.80
2022-09-14T09:58:55.273Z,1.52
2022-09-14T10:01:28.882Z,1.90
2022-09-14T10:04:07.100Z,1.73
2022-09-14T10:06:42.054Z,1.50
2022-09-14T10:09:17.099Z,1.83
2022-09-14T10:11:45.261Z,1.70
2022-09-14T10:14:24.445Z,1.73
2022-09-14T10:16:51.958Z,1.33
2022-09-14T10:19:22.595Z,1.50
2022-09-14T10:22:02.398Z,1.60
2022-09-14T10:24:29.662Z,1.15
2022-09-14T10:26:56.993Z,1.40
2022-09-14T10:29:35.429Z,1.50
2022-09-14T10:32:05.914Z,1.40
2022-09-14T10:34:33.877Z,1.40
2022-09-14T10:37:28.354Z,1.75
2022-09-14T10:39:58.902Z,1.43
2022-09-14T10:42:26.160Z,1.45
2022-09-14T10:45:00.524Z,1.20
2022-09-14T10:47:47.022Z,1.40
2022-09-14T10:50:26.822Z,1.20
2022-09-14T10:53:03.169Z,1.20
2022-09-14T10:55:42.311Z,1.40
2022-09-14T10:58:24.618Z,1.33
2022-09-14T11:01:02.086Z,1.20
2022-09-14T11:03:45.722Z,1.48
2022-09-14T11:06:22.439Z,1.02
2022-09-14T11:08:56.875Z,0.90
2022-09-14T11:11:36.296Z,1.27
2022-09-14T11:14:15.621Z,1.27
2022-09-14T11:16:55.040Z,1.10
2022-09-14T11:19:30.364Z,1.20
2022-09-14T11:22:20.780Z,1.20
2022-09-14T11:24:51.902Z,1.08
2022-09-14T11:27:31.610Z,1.10
2022-09-14T11:30:02.087Z,1.30
2022-09-14T11:32:41.585Z,1.60
2022-09-14T11:35:14.396Z,1.90
2022-09-14T11:37:56.746Z,2.65
2022-09-14T11:40:44.198Z,2.20
2022-09-14T11:43:14.795Z,1.67
2022-09-14T11:45:48.226Z,1.80
2022-09-14T11:48:41.882Z,1.77
2022-09-14T11:51:29.630Z,1.40
2022-09-14T11:53:57.196Z,1.70
2022-09-14T11:56:27.105Z,1.45
2022-09-14T11:58:59.688Z,1.30
2022-09-14T12:01:27.018Z,1.30
2022-09-14T12:03:54.274Z,1.35
2022-09-14T12:06:31.107Z,1.20
2022-09-14T12:09:13.516Z,1.40
2022-09-14T12:11:41.541Z,1.00
2022-09-14T12:14:30.310Z,1.00
2022-09-14T12:17:38.455Z,1.30
2022-09-14T12:20:23.786Z,1.17
2022-09-14T12:22:53.299Z,1.00
2022-09-14T12:25:22.740Z,1.08
2022-09-14T12:27:50.911Z,1.30
2022-09-14T12:30:51.086Z,1.65
2022-09-14T12:33:33.557Z,1.40
2022-09-14T12:36:01.791Z,1.50
2022-09-14T12:38:31.730Z,1.50
2022-09-14T12:41:22.291Z,1.65
2022-09-14T12:43:50.108Z,1.83
2022-09-14T12:46:20.950Z,1.90
2022-09-14T12:48:48.526Z,1.90
2022-09-14T12:51:32.831Z,1.45
2022-09-14T12:54:03.006Z,1.52
2022-09-14T12:56:30.344Z,1.23
2022-09-14T12:59:03.353Z,1.30
2022-09-14T13:01:43.527Z,1.35
2022-09-14T13:04:15.657Z,1.10
2022-09-14T13:06:46.602Z,1.00
2022-09-14T13:09:20.427Z,1.20
2022-09-14T13:11:49.703Z,0.88
2022-09-14T13:14:18.749Z,1.17
2022-09-14T13:16:48.212Z,1.20
2022-09-14T13:19:34.231Z,1.30
2022-09-14T13:22:03.035Z,1.08
2022-09-14T13:24:32.511Z,1.35
2022-09-14T13:27:01.591Z,1.20
2022-09-14T13:29:29.494Z,1.10
2022-09-14T13:32:02.992Z,1.20
2022-09-14T13:34:33.968Z,1.30
2022-09-14T13:37:01.801Z,1.30
2022-09-14T13:39:34.590Z,1.10
2022-09-14T13:42:02.143Z,0.90
2022-09-14T13:44:32.260Z,1.27
2022-09-14T13:47:00.543Z,1.17
2022-09-14T13:49:27.975Z,0.98
2022-09-14T13:52:15.275Z,0.93
2022-09-14T13:54:42.844Z,0.90
2022-09-14T13:57:17.932Z,1.10
2022-09-14T14:00:04.072Z,1.30
2022-09-14T14:02:33.761Z,1.23
2022-09-14T14:05:01.113Z,1.00
2022-09-14T14:07:35.230Z,1.38
2022-09-14T14:10:04.201Z,1.02
2022-09-14T14:12:33.235Z,1.30
2022-09-14T14:15:02.487Z,1.05
2022-09-14T14:17:29.635Z,1.13
2022-09-14T14:19:58.498Z,1.15
2022-09-14T14:22:28.267Z,1.42
2022-09-14T14:25:12.705Z,1.10
2022-09-14T14:27:46.212Z,1.00
2022-09-14T14:30:21.354Z,1.35
2022-09-14T14:32:52.447Z,1.40
2022-09-14T14:35:28.864Z,0.98
2022-09-14T14:37:56.944Z,1.40
2022-09-14T14:40:27.440Z,1.10
2022-09-14T14:42:57.696Z,1.30
2022-09-14T14:45:35.377Z,1.02
2022-09-14T14:48:04.291Z,1.35
2022-09-14T14:50:34.139Z,0.90
2022-09-14T14:53:02.167Z,0.90
2022-09-14T14:55:32.385Z,1.10
2022-09-14T14:58:01.781Z,1.35
2022-09-14T15:00:32.155Z,1.00
2022-09-14T15:02:59.479Z,1.08
2022-09-14T15:05:26.762Z,1.40
2022-09-14T15:07:55.014Z,0.90
2022-09-14T15:10:24.700Z,0.85
2022-09-14T15:12:52.459Z,1.08
2022-09-14T15:15:24.349Z,1.13
2022-09-14T15:17:52.648Z,0.98
2022-09-14T15:20:20.026Z,1.15
2022-09-14T15:22:47.824Z,1.25
2022-09-14T15:25:17.157Z,1.10
2022-09-14T15:27:44.370Z,1.05
2022-09-14T15:30:12.123Z,1.27
2022-09-14T15:32:39.902Z,1.58
2022-09-14T15:35:08.909Z,1.60
2022-09-14T15:37:35.783Z,1.40
2022-09-14T15:40:03.830Z,1.80
2022-09-14T15:42:31.269Z,1.48
2022-09-14T15:44:58.298Z,1.48
2022-09-14T15:47:25.531Z,1.20
2022-09-14T15:49:52.964Z,1.50
2022-09-14T15:52:20.655Z,1.45
2022-09-14T15:54:48.442Z,1.50
2022-09-14T15:57:15.625Z,1.50
2022-09-14T15:59:42.531Z,1.33
2022-09-14T16:02:12.544Z,1.45
2022-09-14T16:04:40.105Z,1.38
2022-09-14T16:07:11.304Z,1.30
2022-09-14T16:09:39.821Z,1.30
2022-09-14T16:12:07.923Z,1.40
2022-09-14T16:14:35.054Z,1.30
2022-09-14T16:17:02.707Z,1.33
2022-09-14T16:19:29.728Z,1.10
2022-09-14T16:21:56.702Z,1.40
2022-09-14T16:24:24.810Z,1.25
2022-09-14T16:26:52.540Z,1.23
2022-09-14T16:29:21.682Z,1.20
2022-09-14T16:31:49.418Z,1.40
2022-09-14T16:34:22.061Z,1.25
2022-09-14T16:36:49.467Z,1.48
2022-09-14T16:39:20.248Z,1.20
2022-09-14T16:41:47.283Z,1.35
2022-09-14T16:44:20.832Z,1.10
2022-09-14T16:46:49.378Z,1.23
2022-09-14T16:49:17.545Z,1.30
2022-09-14T16:51:44.563Z,0.90
2022-09-14T16:54:16.571Z,1.58
2022-09-14T16:56:44.508Z,1.55
2022-09-14T16:59:12.200Z,0.90
2022-09-14T17:01:42.808Z,1.00
2022-09-14T17:04:14.978Z,1.00
2022-09-14T17:06:43.991Z,1.20
2022-09-14T17:09:17.105Z,1.23
2022-09-14T17:11:44.736Z,1.25
2022-09-14T17:14:17.834Z,1.40
2022-09-14T17:16:45.234Z,1.35
2022-09-14T17:19:12.536Z,1.27
2022-09-14T17:21:41.099Z,1.55
2022-09-14T17:24:08.526Z,1.10
2022-09-14T17:26:36.473Z,1.20
2022-09-14T17:29:04.653Z,1.38
2022-09-14T17:31:34.264Z,1.48
2022-09-14T17:34:02.659Z,1.45
2022-09-14T17:36:29.610Z,1.45
2022-09-14T17:39:01.986Z,1.08
2022-09-14T17:41:34.030Z,1.15
2022-09-14T17:44:03.273Z,1.67
2022-09-14T17:46:30.838Z,1.95
2022-09-14T17:49:04.372Z,1.50
2022-09-14T17:51:41.520Z,1.38
2022-09-14T17:54:09.289Z,1.30
2022-09-14T17:56:36.940Z,1.23
2022-09-14T17:59:05.631Z,1.20
2022-09-14T18:01:33.640Z,1.10
2022-09-14T18:04:04.879Z,1.52
2022-09-14T18:06:38.499Z,1.30
2022-09-14T18:09:09.055Z,1.30
2022-09-14T18:11:36.672Z,1.27
2022-09-14T18:14:04.764Z,1.33
2022-09-14T18:16:32.622Z,1.38
2022-09-14T18:18:59.938Z,1.70
2022-09-14T18:21:27.473Z,1.60
2022-09-14T18:23:55.438Z,1.60
2022-09-14T18:26:23.488Z,1.90
2022-09-14T18:28:51.511Z,1.52
2022-09-14T18:31:19.809Z,1.73
2022-09-14T18:33:52.190Z,1.92
2022-09-14T18:36:20.457Z,2.00
2022-09-14T18:38:48.656Z,1.80
2022-09-14T18:41:16.924Z,1.80
2022-09-14T18:43:45.395Z,2.00
2022-09-14T18:46:13.380Z,2.30
2022-09-14T18:48:43.618Z,1.95
2022-09-14T18:51:11.703Z,2.05
2022-09-14T18:53:39.008Z,2.75
2022-09-14T18:56:16.106Z,2.45
2022-09-14T18:58:45.079Z,2.65
2022-09-14T19:05:19.661Z,4.32
2022-09-14T19:07:46.916Z,3.30
2022-09-14T19:10:14.628Z,4.40
2022-09-14T19:12:42.272Z,3.95
2022-09-14T19:15:09.730Z,3.72
2022-09-14T19:17:37.022Z,3.95
2022-09-14T19:20:06.437Z,3.72
2022-09-14T19:22:34.265Z,3.60
2022-09-14T19:25:01.672Z,3.60
2022-09-14T19:27:29.168Z,3.70
2022-09-14T19:29:56.478Z,3.58
2022-09-14T19:32:23.846Z,3.35
2022-09-14T19:34:51.090Z,3.13
2022-09-14T19:37:18.347Z,3.15
2022-09-14T19:39:45.692Z,3.30
2022-09-14T19:42:13.079Z,3.20
2022-09-14T19:44:40.323Z,3.00
2022-09-14T19:47:07.832Z,3.28
2022-09-14T19:49:35.292Z,3.83
2022-09-14T19:52:02.739Z,3.67
2022-09-14T19:54:30.022Z,3.30
2022-09-14T19:56:57.397Z,3.47
2022-09-14T19:59:24.725Z,3.60
2022-09-14T20:01:52.403Z,3.70
2022-09-14T20:04:19.949Z,3.92
2022-09-14T20:06:48.010Z,4.00
2022-09-14T20:09:15.212Z,3.83
2022-09-14T20:11:43.320Z,3.78
2022-09-14T20:14:12.126Z,3.63
2022-09-14T20:16:43.849Z,4.20
2022-09-14T20:19:13.800Z,4.32
2022-09-14T20:21:41.494Z,4.10
2022-09-14T20:24:16.225Z,3.97
2022-09-14T20:26:45.007Z,4.10
2022-09-14T20:29:12.346Z,3.33
2022-09-14T20:31:39.685Z,4.05
2022-09-14T20:34:07.105Z,3.70
2022-09-14T20:36:34.457Z,4.50
2022-09-14T20:39:03.956Z,4.05
2022-09-14T20:41:33.345Z,3.85
2022-09-14T20:44:00.751Z,3.85
2022-09-14T20:46:42.185Z,4.35
2022-09-14T20:49:13.563Z,4.43
2022-09-14T20:51:41.259Z,4.22
2022-09-14T20:54:09.363Z,4.72
2022-09-14T20:56:37.121Z,4.75
2022-09-14T20:59:05.975Z,4.45
2022-09-14T21:01:34.844Z,4.55
2022-09-14T21:04:06.669Z,4.40
2022-09-14T21:06:36.087Z,4.38
2022-09-14T21:09:03.788Z,3.60
2022-09-14T21:11:31.852Z,3.92
2022-09-14T21:13:59.456Z,4.18
2022-09-14T21:16:27.833Z,3.78
2022-09-14T21:18:59.359Z,3.38
2022-09-14T21:21:27.159Z,3.35
2022-09-14T21:23:55.875Z,3.00
2022-09-14T21:26:25.091Z,3.13
2022-09-14T21:28:56.137Z,3.80
2022-09-14T21:31:23.669Z,5.68
2022-09-14T21:33:53.026Z,8.75
2022-09-14T21:36:21.759Z,18.02
2022-09-14T21:38:50.093Z,11.82
2022-09-14T21:41:18.622Z,7.45
2022-09-14T21:43:45.881Z,6.30
2022-09-14T21:46:13.363Z,5.90
2022-09-14T21:48:41.769Z,4.55
2022-09-14T21:51:14.963Z,3.15
2022-09-14T21:53:44.533Z,3.17
2022-09-14T21:56:11.775Z,2.65
2022-09-14T21:58:39.211Z,2.42
2022-09-14T22:01:06.551Z,2.33
2022-09-14T22:03:34.192Z,2.20
2022-09-14T22:06:03.303Z,2.00
2022-09-14T22:08:31.921Z,2.22
2022-09-14T22:11:10.784Z,2.45
2022-09-14T22:13:38.717Z,2.42
2022-09-14T22:16:08.052Z,2.53
2022-09-14T22:18:36.806Z,2.95
2022-09-14T22:21:04.949Z,2.60
2022-09-14T22:23:33.139Z,2.13
2022-09-14T22:26:03.750Z,2.78
2022-09-14T22:28:31.267Z,2.70
2022-09-14T22:30:58.691Z,2.50
2022-09-14T22:33:26.139Z,2.50
2022-09-14T22:35:54.217Z,2.33
2022-09-14T22:38:22.744Z,1.95
2022-09-14T22:41:27.478Z,2.55
2022-09-14T22:43:55.835Z,2.58
2022-09-14T22:46:56.830Z,2.40
2022-09-14T22:49:24.509Z,2.40
2022-09-14T22:51:52.679Z,2.47
2022-09-14T22:54:20.083Z,2.30
2022-09-14T22:56:47.427Z,2.15
2022-09-14T22:59:14.703Z,2.60
2022-09-14T23:01:42.235Z,2.05
2022-09-14T23:04:12.976Z,2.10
2022-09-14T23:06:42.044Z,2.38
2022-09-14T23:09:10.902Z,2.08
2022-09-14T23:11:39.741Z,1.90
2022-09-14T23:14:06.974Z,1.80
2022-09-14T23:16:34.519Z,1.90
2022-09-14T23:19:03.311Z,1.67
2022-09-14T23:21:31.408Z,1.38
2022-09-14T23:24:00.027Z,1.40
2022-09-14T23:26:27.680Z,1.48
2022-09-14T23:29:05.720Z,1.38
2022-09-14T23:31:33.657Z,1.30
2022-09-14T23:34:01.660Z,1.13
2022-09-14T23:36:29.350Z,1.23
2022-09-14T23:38:56.856Z,1.40
2022-09-14T23:41:25.189Z,1.40
2022-09-14T23:43:52.690Z,1.50
2022-09-14T23:46:20.626Z,1.42
2022-09-14T23:48:48.031Z,1.30
2022-09-14T23:51:15.637Z,1.50
2022-09-14T23:53:43.288Z,1.83
2022-09-14T23:56:10.947Z,1.70
2022-09-14T23:58:38.312Z,1.90
